Accueil
METAR-TAF:

METAR-TAF

Aéroports :

Aéroport de Dortmund

Dortmund, Allemagne

latitude: 51-31N, longitude: 007-37E, altitude: 127 m

Observation

Le bulletin a été fait il y a 21 minutes, à 00:50 UTC
Vent 5 kt de est/sud-est
Température 16°C
Humidité 59%
Pression 1020 hPa
Visibilité 10 km ou plus

METAR: EDLW 020050Z AUTO 12005KT 9999 // NCD 16/08 Q1020

Heure: 03:11 (01:11 UTC)

Prévision

Le bulletin a été fait il y a 14 heures et 11 minutes, à 11:00 UTC
Prévision valable du 01 à 12 UTC au 02 à 12 UTC
Vent 8 kt de est/nord-est
Visibilité 10 km ou plus
pas de nuages en-dessous de 1500 mètres et pas de cumulonimbus.
Evoluant progressivement
du 01 à 18 UTC au 01 à 20 UTC
Vent 3 kt de est
Evoluant progressivement
du 02 à 08 UTC au 02 à 10 UTC
Vent 5 kt de nord-est

TAF: EDLW 011100Z 0112/0212 06008KT CAVOK BECMG 0118/0120 10003KT BECMG 0208/0210 04005KT

Observations et prévisions météorologiques de plus de 4000 aéroports (messages METAR et TAF).

Les stations disponibles sont représentées par des disques jaunes et rouges sur la carte.

Passer la souris dessus pour voir le nom de la station.

Cliquer dessus pour voir les observations et prévisions météorologiques.

Pour changer de carte: cliquez sur les boutons verts avec une croix noire pour zoomer, sur le bouton vert avec un tiret pour effectuer un zoom arrière, ou sur les flèches vertes pour les cartes adjacentes.


METAR-TAF: